Elliot Chaparral Reserve, California Weather observations

Data are for 10 minute period ending at time listed.
 Day   Time   Solar   Ave.   Ave.  Ave.  Vector  Max.   Baro.   Total    
  of    of     Rad.   Air    Rel.  Wind   Wind   Wind  Press.  Precip.   
Year   Day            Temp.  Hum.  Speed  Dir.   Gust                    
2016   (PST)  Kw/m2    F      %     mph   deg.    mph    mb.     in.     
-------------------------------------------------------------------------
 177   18:40   0.02   66.7    71    7.4   261     9.3   982.1    0.00 
 177   18:50   0.01   66.2    72    6.1   253     8.1   982.2    0.00 
 177   19:00   0.00   65.5    73    6.1   246     7.5   982.3    0.00 
 177   19:10   0.00   64.8    75    6.2   252     7.8   982.3    0.00 
 177   19:20   0.00   64.5    76    4.4   303     8.4   982.2    0.00 
 177   19:30   0.00   63.9    78    6.2   322     7.8   982.3    0.00 
 177   19:40   0.00   63.4    79    6.1   296     7.5   982.3    0.00 
 177   19:50   0.00   63.0    80    5.1   294     6.9   982.4    0.00 
 177   20:00   0.00   62.7    81    5.3   293     6.3   982.5    0.00 
 177   20:10   0.00   62.5    81    4.8   288     5.8   982.5    0.00 
 177   20:20   0.00   62.4    82    3.9   288     5.2   982.5    0.00 
 177   20:30   0.00   62.2    82    3.5   300     4.5   982.5    0.00 
 177   20:40   0.00   62.1    82    3.0   292     3.8   982.6    0.00 
 177   20:50   0.00   62.1    82    2.4   265     3.4   982.5    0.00 
 177   21:00   0.00   61.8    82    3.0   232     4.0   982.5    0.00 
 177   21:10   0.00   61.7    83    2.4   233     3.9   982.6    0.00 
 177   21:20   0.00   61.7    83    2.6   235     3.5   982.6    0.00 
 177   21:30   0.00   61.6    83    1.7   226     2.3   982.7    0.00 
 177   21:40   0.00   61.6    83    2.0   230     2.7   982.8    0.00 
 177   21:50   0.00   61.4    83    2.5   244     3.4   982.8    0.00 
 177   22:00   0.00   61.4    83    3.1   246     3.7   982.8    0.00 
 177   22:10   0.00   61.3    83    2.6   235     3.4   982.8    0.00 
 177   22:20   0.00   61.2    83    1.9   222     2.4   982.9    0.00 
 177   22:30   0.00   61.2    84    1.9   237     2.4   982.9    0.00 
 177   22:40   0.00   61.2    84    0.7   224     1.3   982.8    0.00 
 177   22:50   0.00   60.9    84    0.3   178     1.0   982.7    0.00 
 177   23:00   0.00   61.0    84    0.0     0     0.0   982.7    0.00 
 177   23:10   0.00   61.2    84    0.4   178     0.9   982.6    0.00 
 177   23:20   0.00   61.3    84    0.3   178     1.1   982.6    0.00 
 177   23:30   0.00   61.5    84    0.0   178     0.5   982.5    0.00 
 177   23:40   0.00   61.4    84    0.7   150     1.8   982.5    0.00 
 177   23:50   0.00   61.1    84    0.1   126     0.9   982.5    0.00 
 178    0:00   0.00   61.3    84    0.4   127     1.2   982.4    0.00 
 178    0:10   0.00   61.2    84    0.8   148     1.3   982.4    0.00 
 178    0:20   0.00   61.1    85    1.6   214     2.0   982.2    0.00 
 178    0:30   0.00   61.0    85    2.2   231     2.6   982.2    0.00 
 178    0:40   0.00   60.7    86    2.4   232     2.6   982.1    0.00 
 178    0:50   0.00   60.7    86    1.5   225     2.3   982.2    0.00 
 178    1:00   0.00   60.9    86    1.7   227     2.0   982.2    0.00 
 178    1:10   0.00   60.8    86    1.7   231     2.0   982.3    0.00 
 178    1:20   0.00   60.8    85    2.5   256     3.1   982.1    0.00 
 178    1:30   0.00   60.5    86    2.5   276     3.4   982.0    0.00 
 178    1:40   0.00   60.5    86    2.6   263     3.4   982.0    0.00 
 178    1:50   0.00   60.4    86    2.9   270     3.6   982.0    0.00 
 178    2:00   0.00   60.3    86    1.4   249     3.2   982.1    0.00 
 178    2:10   0.00   59.6    87    2.1    83     2.9   982.2    0.00 
 178    2:20   0.00   59.9    88    0.8    41     2.0   982.0    0.00 
 178    2:30   0.00   60.2    87    1.0   343     1.5   982.0    0.00 
 178    2:40   0.00   60.3    87    0.5   343     0.9   982.0    0.00 
 178    2:50   0.00   60.3    87    0.4   343     0.9   981.9    0.00 
 178    3:00   0.00   60.2    87    1.0    14     2.3   981.8    0.00 
 178    3:10   0.00   60.2    87    2.6    24     3.4   981.9    0.00 
 178    3:20   0.00   60.1    87    3.5    20     3.9   981.9    0.00 
 178    3:30   0.00   59.7    88    4.0     6     4.8   981.8    0.00 
 178    3:40   0.00   59.7    88    3.0     3     3.9   981.8    0.00 
 178    3:50   0.00   59.6    88    3.1   347     4.0   981.8    0.00 
 178    4:00   0.00   59.5    88    3.6     1     4.2   981.7    0.00 
 178    4:10   0.00   59.6    88    3.6   355     4.6   981.7    0.00 
 178    4:20   0.00   59.6    88    3.1     7     3.4   981.8    0.00 
 178    4:30   0.00   59.7    88    2.8   355     3.4   981.8    0.00 
 178    4:40   0.00   59.8    88    1.8     3     2.6   981.9    0.00 
 178    4:50   0.00   59.6    88    2.4    34     2.8   982.1    0.00 
 178    5:00   0.01   59.7    88    2.8     2     3.4   982.0    0.00 
 178    5:10   0.03   60.0    88    2.9   359     3.9   982.0    0.00 
 178    5:20   0.05   60.7    87    3.0    22     4.2   982.1    0.00 
 178    5:30   0.08   61.4    85    3.3    39     4.2   982.2    0.00 
 178    5:40   0.09   62.4    83    3.0    13     4.3   982.2    0.00 
 178    5:50   0.12   63.3    80    2.8    40     5.5   982.3    0.00 
 178    6:00   0.15   64.3    78    2.9    60     4.8   982.4    0.00 
 178    6:10   0.19   65.6    75    2.3    48     4.5   982.6    0.00 
 178    6:20   0.22   66.9    72    2.5    33     4.2   982.9    0.00 
 178    6:30   0.26   66.8    72    2.7     3     4.8   983.0    0.00 
 178    6:40   0.29   67.3    71    2.2   327     4.2   983.2    0.00 
 178    6:50   0.32   67.9    70    2.9   334     5.3   983.2    0.00 
 178    7:00   0.36   67.9    70    3.0   319     5.3   983.3    0.00 
 178    7:10   0.40   68.9    68    2.1   302     4.4   983.4    0.00 
 178    7:20   0.43   70.9    64    2.5   332     4.5   983.5    0.00 
 178    7:30   0.46   71.3    63    2.5   280     5.3   983.6    0.00 
 178    7:40   0.49   71.4    63    2.7   300     5.4   983.8    0.00 
 178    7:50   0.53   72.0    62    4.1   300     7.5   983.8    0.00 
 178    8:00   0.56   72.0    61    5.1   275     8.5   983.9    0.00 
 178    8:10   0.59   72.2    61    5.6   287     9.2   983.9    0.00 
 178    8:20   0.62   72.6    60    4.8   274     8.6   983.9    0.00 
 178    8:30   0.65   73.2    59    4.4   280     7.5   984.0    0.00 
 178    8:40   0.68   73.9    58    4.6   260     8.8   984.0    0.00 
 178    8:50   0.70   74.7    56    5.7   269     9.4   984.1    0.00 
 178    9:00   0.72   74.8    56    3.8   260     8.6   984.1    0.00 
 178    9:10   0.75   75.8    54    4.7   284     9.8   984.1    0.00 
 178    9:20   0.77   76.4    53    5.6   281    10.3   984.1    0.00 
 178    9:30   0.79   77.2    51    5.3   267     9.8   984.1    0.00 
 178    9:40   0.81   77.8    51    5.4   265    11.4   984.1    0.00 
 178    9:50   0.82   79.0    49    6.1   245    12.1   984.1    0.00 
 178   10:00   0.84   78.3    51    7.6   254    11.8   984.0    0.00 
 178   10:10   0.85   78.8    50    4.6   262     8.7   984.0    0.00 
 178   10:20   0.87   79.7    49    5.4   255    11.8   983.9    0.00 
 178   10:30   0.88   80.1    48    8.8   281    13.8   983.9    0.00 
 178   10:40   0.89   79.3    50    9.3   274    14.6   983.9    0.00 
 178   10:50   0.90   79.6    49    9.3   270    14.0   983.9    0.00 
 178   11:00   0.91   79.6    50    7.8   292    12.1   983.9    0.00 
 178   11:10   0.92   79.9    49    8.8   254    14.9   983.9    0.00 
 178   11:20   0.92   79.9    50   11.2   260    15.8   983.9    0.00 
 178   11:30   0.93   78.8    52   10.6   272    19.0   983.9    0.00 
 178   11:40   0.93   78.2    53   11.2   269    17.5   984.0    0.00 
 178   11:50   0.90   78.8    52   10.5   276    14.8   984.0    0.00 
 178   12:00   0.93   78.2    53   11.2   283    17.9   984.0    0.00 
 178   12:10   0.93   77.0    55   12.2   273    17.0   984.1    0.00 
 178   12:20   0.92   77.7    54   11.6   285    16.1   984.1    0.00 
 178   12:30   0.92   78.0    54   11.2   290    17.7   984.1    0.00 
 178   12:40   0.91   77.5    54   11.5   290    16.1   984.0    0.00 
 178   12:50   0.90   78.2    53   10.5   289    16.5   984.1    0.00 
 178   13:00   0.89   77.9    54    9.9   276    16.5   984.1    0.00 
 178   13:10   0.88   77.8    54    9.8   275    15.4   984.1    0.00 
 178   13:20   0.87   78.3    53    8.5   263    14.0   984.0    0.00 
 178   13:30   0.85   78.0    53   10.0   278    15.5   984.0    0.00 
 178   13:40   0.84   78.7    52    9.1   255    14.6   984.0    0.00 
 178   13:50   0.82   78.4    52   10.7   267    15.3   983.9    0.00 
 178   14:00   0.80   79.0    51    8.6   237    13.0   983.9    0.00 
 178   14:10   0.78   79.3    50    7.5   236    14.8   983.8    0.00 
 178   14:20   0.76   78.9    51    9.2   257    15.3   983.8    0.00 
 178   14:30   0.74   79.5    50    8.9   247    14.1   983.8    0.00 
 178   14:40   0.71   78.9    51    8.3   247    13.6   983.8    0.00 
 178   14:50   0.69   79.6    50    8.8   228    14.2   983.7    0.00 
 178   15:00   0.67   78.8    52    9.0   234    12.9   983.7    0.00 
 178   15:10   0.63   78.5    52    9.2   243    12.7   983.7    0.00 
 178   15:20   0.61   78.7    52    7.9   247    12.8   983.7    0.00 
 178   15:30   0.58   77.8    53    8.2   242    12.5   983.7    0.00 
 178   15:40   0.55   78.3    53    9.2   247    13.9   983.7    0.00 
 178   15:50   0.52   77.5    54    6.3   258    11.4   983.6    0.00 
 178   16:00   0.49   78.3    52    7.1   258    12.4   983.5    0.00 
 178   16:10   0.46   78.8    52    7.7   258    12.6   983.5    0.00 
 178   16:20   0.42   78.8    52    7.0   264    10.9   983.4    0.00 
 178   16:30   0.39   78.2    53    6.0   265     9.6   983.3    0.00 
 178   16:40   0.36   78.2    53    6.9   255    11.0   983.3    0.00 
 178   16:50   0.33   78.4    52    6.0   244    10.4   983.3    0.00 
 178   17:00   0.30   78.6    52    5.0   265    10.9   983.2    0.00 
 178   17:10   0.26   78.5    52    5.2   267     9.1   983.2    0.00 
 178   17:20   0.23   78.2    53    4.9   287     8.9   983.2    0.00 
 178   17:30   0.20   78.2    53    5.9   282     9.0   983.2    0.00 
 178   17:40   0.17   77.8    53    5.8   279     9.5   983.3    0.00 
 178   17:50   0.14   77.7    54    5.4   258     9.4   983.4    0.00 
 178   18:00   0.11   78.0    53    5.1   262     7.5   983.4    0.00 
 178   18:10   0.09   77.1    54    5.9   259     8.5   983.4    0.00 
 178   18:20   0.07   75.7    58    7.8   273    10.2   983.5    0.00 
 178   18:30   0.04   73.7    63    7.1   280     8.9   983.5    0.00 

Return to Elliot Chaparral Reserve graphs page.


Western Regional Climate Center,wrcc@dri.edu